sensor_id;sensor_type;location;lat;lon;timestamp;P1;durP1;ratioP1;P2;durP2;ratioP2
75048;SDS011;63803;53.120;8.764;2023-02-21T00:02:42;1.85;;;1.00;;
75048;SDS011;63803;53.120;8.764;2023-02-21T00:05:26;1.80;;;0.90;;
75048;SDS011;63803;53.120;8.764;2023-02-21T00:08:10;1.25;;;0.85;;
75048;SDS011;63803;53.120;8.764;2023-02-21T00:10:54;4.63;;;1.00;;
75048;SDS011;63803;53.120;8.764;2023-02-21T00:13:37;5.38;;;1.10;;
75048;SDS011;63803;53.120;8.764;2023-02-21T00:16:22;1.60;;;1.05;;
75048;SDS011;63803;53.120;8.764;2023-02-21T00:19:06;1.27;;;1.00;;
75048;SDS011;63803;53.120;8.764;2023-02-21T00:21:51;2.30;;;1.15;;
75048;SDS011;63803;53.120;8.764;2023-02-21T00:24:35;1.92;;;0.90;;
75048;SDS011;63803;53.120;8.764;2023-02-21T00:27:19;1.88;;;1.05;;
75048;SDS011;63803;53.120;8.764;2023-02-21T00:30:04;3.97;;;1.08;;
75048;SDS011;63803;53.120;8.764;2023-02-21T00:32:49;1.75;;;1.02;;
75048;SDS011;63803;53.120;8.764;2023-02-21T00:35:33;1.10;;;0.85;;
75048;SDS011;63803;53.120;8.764;2023-02-21T00:38:17;2.03;;;1.30;;
75048;SDS011;63803;53.120;8.764;2023-02-21T00:41:00;1.80;;;1.10;;
75048;SDS011;63803;53.120;8.764;2023-02-21T00:43:44;1.85;;;0.93;;
75048;SDS011;63803;53.120;8.764;2023-02-21T00:46:28;4.00;;;1.05;;
75048;SDS011;63803;53.120;8.764;2023-02-21T00:49:12;2.00;;;1.30;;
75048;SDS011;63803;53.120;8.764;2023-02-21T00:51:55;2.30;;;0.98;;
75048;SDS011;63803;53.120;8.764;2023-02-21T00:54:39;2.15;;;1.00;;
75048;SDS011;63803;53.120;8.764;2023-02-21T00:57:23;3.20;;;0.90;;
75048;SDS011;63803;53.120;8.764;2023-02-21T01:00:08;4.32;;;1.17;;
75048;SDS011;63803;53.120;8.764;2023-02-21T01:02:57;1.80;;;0.95;;
75048;SDS011;63803;53.120;8.764;2023-02-21T01:05:41;2.28;;;0.93;;
75048;SDS011;63803;53.120;8.764;2023-02-21T01:08:24;2.50;;;1.17;;
75048;SDS011;63803;53.120;8.764;2023-02-21T01:11:13;1.23;;;0.90;;
75048;SDS011;63803;53.120;8.764;2023-02-21T01:14:01;2.45;;;1.08;;
75048;SDS011;63803;53.120;8.764;2023-02-21T01:16:45;2.35;;;1.05;;
75048;SDS011;63803;53.120;8.764;2023-02-21T01:19:29;2.10;;;1.00;;
75048;SDS011;63803;53.120;8.764;2023-02-21T01:22:13;2.20;;;0.88;;
75048;SDS011;63803;53.120;8.764;2023-02-21T01:24:58;2.25;;;1.00;;
75048;SDS011;63803;53.120;8.764;2023-02-21T01:27:42;2.60;;;1.17;;
75048;SDS011;63803;53.120;8.764;2023-02-21T01:30:26;1.98;;;0.95;;
75048;SDS011;63803;53.120;8.764;2023-02-21T01:33:10;2.72;;;1.00;;
75048;SDS011;63803;53.120;8.764;2023-02-21T01:35:54;2.35;;;1.08;;
75048;SDS011;63803;53.120;8.764;2023-02-21T01:38:38;3.40;;;1.10;;
75048;SDS011;63803;53.120;8.764;2023-02-21T01:41:22;1.75;;;0.82;;
75048;SDS011;63803;53.120;8.764;2023-02-21T01:44:20;3.20;;;1.23;;
75048;SDS011;63803;53.120;8.764;2023-02-21T01:47:10;2.28;;;1.13;;
75048;SDS011;63803;53.120;8.764;2023-02-21T01:49:55;1.60;;;1.10;;
75048;SDS011;63803;53.120;8.764;2023-02-21T01:52:41;4.40;;;1.10;;
75048;SDS011;63803;53.120;8.764;2023-02-21T01:55:25;2.80;;;0.98;;
75048;SDS011;63803;53.120;8.764;2023-02-21T01:58:09;2.15;;;0.80;;
75048;SDS011;63803;53.120;8.764;2023-02-21T02:00:54;3.88;;;1.33;;
75048;SDS011;63803;53.120;8.764;2023-02-21T02:03:38;2.40;;;0.85;;
75048;SDS011;63803;53.120;8.764;2023-02-21T02:06:24;2.30;;;1.00;;
75048;SDS011;63803;53.120;8.764;2023-02-21T02:09:18;1.02;;;0.77;;
75048;SDS011;63803;53.120;8.764;2023-02-21T02:18:05;6.22;;;1.20;;
75048;SDS011;63803;53.120;8.764;2023-02-21T02:37:29;6.13;;;1.30;;
75048;SDS011;63803;53.120;8.764;2023-02-21T02:46:04;2.50;;;1.00;;
75048;SDS011;63803;53.120;8.764;2023-02-21T02:48:35;1.67;;;0.75;;
75048;SDS011;63803;53.120;8.764;2023-02-21T02:51:07;3.47;;;0.88;;
75048;SDS011;63803;53.120;8.764;2023-02-21T02:53:36;2.85;;;1.00;;
75048;SDS011;63803;53.120;8.764;2023-02-21T02:56:05;8.95;;;0.90;;
75048;SDS011;63803;53.120;8.764;2023-02-21T02:58:42;1.52;;;0.80;;
75048;SDS011;63803;53.120;8.764;2023-02-21T03:14:56;4.57;;;1.35;;
75048;SDS011;63803;53.120;8.764;2023-02-21T03:17:58;2.60;;;1.17;;
75048;SDS011;63803;53.120;8.764;2023-02-21T03:20:33;3.13;;;0.90;;
75048;SDS011;63803;53.120;8.764;2023-02-21T03:23:01;1.25;;;0.82;;
75048;SDS011;63803;53.120;8.764;2023-02-21T03:25:28;3.05;;;1.00;;
75048;SDS011;63803;53.120;8.764;2023-02-21T03:27:56;2.25;;;1.08;;
75048;SDS011;63803;53.120;8.764;2023-02-21T03:30:24;2.75;;;1.30;;
75048;SDS011;63803;53.120;8.764;2023-02-21T03:32:50;2.03;;;1.02;;
75048;SDS011;63803;53.120;8.764;2023-02-21T03:35:18;2.90;;;1.00;;
75048;SDS011;63803;53.120;8.764;2023-02-21T03:37:45;3.97;;;1.38;;
75048;SDS011;63803;53.120;8.764;2023-02-21T03:40:34;1.48;;;0.88;;
75048;SDS011;63803;53.120;8.764;2023-02-21T03:43:01;2.63;;;0.90;;
75048;SDS011;63803;53.120;8.764;2023-02-21T03:45:27;1.98;;;0.80;;
75048;SDS011;63803;53.120;8.764;2023-02-21T03:47:53;5.05;;;0.95;;
75048;SDS011;63803;53.120;8.764;2023-02-21T03:50:18;1.17;;;0.80;;
75048;SDS011;63803;53.120;8.764;2023-02-21T03:52:43;3.13;;;0.93;;
75048;SDS011;63803;53.120;8.764;2023-02-21T03:55:09;4.03;;;1.25;;
75048;SDS011;63803;53.120;8.764;2023-02-21T03:57:35;1.70;;;0.90;;
75048;SDS011;63803;53.120;8.764;2023-02-21T04:00:00;2.20;;;1.00;;
75048;SDS011;63803;53.120;8.764;2023-02-21T04:02:26;1.58;;;0.77;;
75048;SDS011;63803;53.120;8.764;2023-02-21T04:04:51;6.30;;;1.00;;
75048;SDS011;63803;53.120;8.764;2023-02-21T04:07:17;1.08;;;0.95;;
75048;SDS011;63803;53.120;8.764;2023-02-21T04:09:44;1.30;;;0.63;;
75048;SDS011;63803;53.120;8.764;2023-02-21T04:12:09;2.53;;;1.00;;
75048;SDS011;63803;53.120;8.764;2023-02-21T04:14:35;4.03;;;0.80;;
75048;SDS011;63803;53.120;8.764;2023-02-21T04:17:01;2.20;;;1.20;;
75048;SDS011;63803;53.120;8.764;2023-02-21T04:19:26;5.30;;;1.20;;
75048;SDS011;63803;53.120;8.764;2023-02-21T04:21:52;2.65;;;1.17;;
75048;SDS011;63803;53.120;8.764;2023-02-21T04:24:17;2.97;;;1.00;;
75048;SDS011;63803;53.120;8.764;2023-02-21T04:26:42;4.53;;;1.98;;
75048;SDS011;63803;53.120;8.764;2023-02-21T04:29:08;4.57;;;1.10;;
75048;SDS011;63803;53.120;8.764;2023-02-21T04:31:33;4.15;;;1.13;;
75048;SDS011;63803;53.120;8.764;2023-02-21T04:33:59;2.25;;;0.90;;
75048;SDS011;63803;53.120;8.764;2023-02-21T04:36:25;4.90;;;1.00;;
75048;SDS011;63803;53.120;8.764;2023-02-21T04:38:51;5.32;;;1.15;;
75048;SDS011;63803;53.120;8.764;2023-02-21T04:41:17;4.00;;;1.15;;
75048;SDS011;63803;53.120;8.764;2023-02-21T04:43:43;6.65;;;1.27;;
75048;SDS011;63803;53.120;8.764;2023-02-21T04:46:09;5.40;;;1.20;;
75048;SDS011;63803;53.120;8.764;2023-02-21T04:48:45;8.85;;;1.65;;
75048;SDS011;63803;53.120;8.764;2023-02-21T04:51:12;13.38;;;1.00;;
75048;SDS011;63803;53.120;8.764;2023-02-21T04:53:38;9.75;;;1.60;;
75048;SDS011;63803;53.120;8.764;2023-02-21T04:56:04;4.50;;;1.25;;
75048;SDS011;63803;53.120;8.764;2023-02-21T04:58:30;4.25;;;1.00;;
75048;SDS011;63803;53.120;8.764;2023-02-21T05:00:55;3.28;;;1.13;;
75048;SDS011;63803;53.120;8.764;2023-02-21T05:03:21;11.82;;;1.35;;
75048;SDS011;63803;53.120;8.764;2023-02-21T05:05:48;2.75;;;1.00;;
75048;SDS011;63803;53.120;8.764;2023-02-21T05:08:13;5.60;;;1.20;;
75048;SDS011;63803;53.120;8.764;2023-02-21T05:10:38;8.55;;;1.38;;
75048;SDS011;63803;53.120;8.764;2023-02-21T05:13:04;4.55;;;1.40;;
75048;SDS011;63803;53.120;8.764;2023-02-21T05:15:29;8.25;;;1.73;;
75048;SDS011;63803;53.120;8.764;2023-02-21T05:17:55;11.80;;;1.30;;
75048;SDS011;63803;53.120;8.764;2023-02-21T05:20:20;6.95;;;1.23;;
75048;SDS011;63803;53.120;8.764;2023-02-21T05:22:46;6.70;;;1.10;;
75048;SDS011;63803;53.120;8.764;2023-02-21T05:25:16;3.45;;;1.10;;
75048;SDS011;63803;53.120;8.764;2023-02-21T05:27:43;21.35;;;1.42;;
75048;SDS011;63803;53.120;8.764;2023-02-21T05:30:09;4.22;;;1.20;;
75048;SDS011;63803;53.120;8.764;2023-02-21T05:32:35;3.00;;;1.20;;
75048;SDS011;63803;53.120;8.764;2023-02-21T05:35:00;3.03;;;1.13;;
75048;SDS011;63803;53.120;8.764;2023-02-21T05:37:26;5.55;;;1.30;;
75048;SDS011;63803;53.120;8.764;2023-02-21T05:39:51;6.90;;;1.13;;
75048;SDS011;63803;53.120;8.764;2023-02-21T05:42:16;6.57;;;1.70;;
75048;SDS011;63803;53.120;8.764;2023-02-21T05:44:43;2.85;;;1.35;;
75048;SDS011;63803;53.120;8.764;2023-02-21T05:47:10;8.65;;;1.50;;
75048;SDS011;63803;53.120;8.764;2023-02-21T05:49:36;5.95;;;1.35;;
75048;SDS011;63803;53.120;8.764;2023-02-21T05:52:02;2.95;;;1.17;;
75048;SDS011;63803;53.120;8.764;2023-02-21T05:54:29;7.85;;;1.30;;
75048;SDS011;63803;53.120;8.764;2023-02-21T05:56:54;6.97;;;1.40;;
75048;SDS011;63803;53.120;8.764;2023-02-21T05:59:20;2.30;;;1.08;;
75048;SDS011;63803;53.120;8.764;2023-02-21T06:01:46;5.13;;;1.13;;
75048;SDS011;63803;53.120;8.764;2023-02-21T06:04:12;2.50;;;1.20;;
75048;SDS011;63803;53.120;8.764;2023-02-21T06:06:37;5.22;;;1.48;;
75048;SDS011;63803;53.120;8.764;2023-02-21T06:09:03;3.00;;;1.10;;
75048;SDS011;63803;53.120;8.764;2023-02-21T06:11:31;2.20;;;1.05;;
75048;SDS011;63803;53.120;8.764;2023-02-21T06:13:58;3.90;;;1.52;;
75048;SDS011;63803;53.120;8.764;2023-02-21T06:16:26;7.15;;;1.42;;
75048;SDS011;63803;53.120;8.764;2023-02-21T06:18:53;3.25;;;1.00;;
75048;SDS011;63803;53.120;8.764;2023-02-21T06:21:20;7.15;;;1.63;;
75048;SDS011;63803;53.120;8.764;2023-02-21T06:23:45;3.55;;;1.20;;
75048;SDS011;63803;53.120;8.764;2023-02-21T06:26:11;2.30;;;1.30;;
75048;SDS011;63803;53.120;8.764;2023-02-21T06:28:37;2.28;;;1.13;;
75048;SDS011;63803;53.120;8.764;2023-02-21T06:31:03;4.75;;;1.40;;
75048;SDS011;63803;53.120;8.764;2023-02-21T06:33:29;5.38;;;1.48;;
75048;SDS011;63803;53.120;8.764;2023-02-21T06:35:54;2.90;;;1.63;;
75048;SDS011;63803;53.120;8.764;2023-02-21T06:38:20;6.35;;;1.55;;
75048;SDS011;63803;53.120;8.764;2023-02-21T06:40:45;6.88;;;3.20;;
75048;SDS011;63803;53.120;8.764;2023-02-21T06:43:10;7.47;;;4.00;;
75048;SDS011;63803;53.120;8.764;2023-02-21T06:45:36;7.40;;;3.58;;
75048;SDS011;63803;53.120;8.764;2023-02-21T06:48:01;9.40;;;5.47;;
75048;SDS011;63803;53.120;8.764;2023-02-21T06:50:30;10.27;;;5.03;;
75048;SDS011;63803;53.120;8.764;2023-02-21T06:52:55;9.73;;;5.22;;
75048;SDS011;63803;53.120;8.764;2023-02-21T06:55:21;8.05;;;3.72;;
75048;SDS011;63803;53.120;8.764;2023-02-21T06:57:47;7.32;;;3.38;;
75048;SDS011;63803;53.120;8.764;2023-02-21T07:00:13;3.70;;;2.47;;
75048;SDS011;63803;53.120;8.764;2023-02-21T07:02:40;3.60;;;2.33;;
75048;SDS011;63803;53.120;8.764;2023-02-21T07:05:05;7.55;;;2.65;;
75048;SDS011;63803;53.120;8.764;2023-02-21T07:07:31;4.63;;;2.10;;
75048;SDS011;63803;53.120;8.764;2023-02-21T07:09:56;3.35;;;1.75;;
75048;SDS011;63803;53.120;8.764;2023-02-21T07:12:22;4.20;;;1.88;;
75048;SDS011;63803;53.120;8.764;2023-02-21T07:14:47;3.90;;;1.63;;
75048;SDS011;63803;53.120;8.764;2023-02-21T07:17:13;5.00;;;1.70;;
75048;SDS011;63803;53.120;8.764;2023-02-21T07:19:38;4.82;;;1.58;;
75048;SDS011;63803;53.120;8.764;2023-02-21T07:22:06;2.33;;;1.35;;
75048;SDS011;63803;53.120;8.764;2023-02-21T07:24:31;5.05;;;1.88;;
75048;SDS011;63803;53.120;8.764;2023-02-21T07:26:57;11.55;;;1.75;;
75048;SDS011;63803;53.120;8.764;2023-02-21T07:29:23;4.75;;;1.50;;
75048;SDS011;63803;53.120;8.764;2023-02-21T07:31:49;3.40;;;1.27;;
75048;SDS011;63803;53.120;8.764;2023-02-21T07:34:14;4.38;;;1.60;;
75048;SDS011;63803;53.120;8.764;2023-02-21T07:36:40;3.85;;;1.63;;
75048;SDS011;63803;53.120;8.764;2023-02-21T07:39:06;7.00;;;1.38;;
75048;SDS011;63803;53.120;8.764;2023-02-21T07:41:31;5.07;;;1.92;;
75048;SDS011;63803;53.120;8.764;2023-02-21T07:43:57;7.32;;;1.77;;
75048;SDS011;63803;53.120;8.764;2023-02-21T07:54:50;4.85;;;1.80;;
75048;SDS011;63803;53.120;8.764;2023-02-21T07:57:16;1.65;;;1.02;;
75048;SDS011;63803;53.120;8.764;2023-02-21T07:59:42;5.93;;;1.27;;
75048;SDS011;63803;53.120;8.764;2023-02-21T08:02:08;9.05;;;1.85;;
75048;SDS011;63803;53.120;8.764;2023-02-21T08:04:35;3.35;;;1.38;;
75048;SDS011;63803;53.120;8.764;2023-02-21T08:07:01;5.07;;;1.50;;
75048;SDS011;63803;53.120;8.764;2023-02-21T08:09:28;4.18;;;1.30;;
75048;SDS011;63803;53.120;8.764;2023-02-21T08:11:54;6.07;;;1.80;;
75048;SDS011;63803;53.120;8.764;2023-02-21T08:14:20;7.03;;;1.40;;
75048;SDS011;63803;53.120;8.764;2023-02-21T08:16:45;4.32;;;1.58;;
75048;SDS011;63803;53.120;8.764;2023-02-21T08:19:13;3.92;;;1.42;;
75048;SDS011;63803;53.120;8.764;2023-02-21T08:21:42;8.30;;;1.70;;
75048;SDS011;63803;53.120;8.764;2023-02-21T08:24:11;4.05;;;1.85;;
75048;SDS011;63803;53.120;8.764;2023-02-21T08:26:37;4.40;;;1.40;;
75048;SDS011;63803;53.120;8.764;2023-02-21T08:29:05;5.43;;;1.30;;
75048;SDS011;63803;53.120;8.764;2023-02-21T08:31:33;3.05;;;1.27;;
75048;SDS011;63803;53.120;8.764;2023-02-21T08:34:09;3.95;;;1.70;;
75048;SDS011;63803;53.120;8.764;2023-02-21T08:36:39;1.88;;;1.17;;
75048;SDS011;63803;53.120;8.764;2023-02-21T08:39:06;3.17;;;1.35;;
75048;SDS011;63803;53.120;8.764;2023-02-21T08:44:01;3.67;;;1.63;;
75048;SDS011;63803;53.120;8.764;2023-02-21T08:46:26;4.13;;;1.65;;
75048;SDS011;63803;53.120;8.764;2023-02-21T08:48:52;3.25;;;1.35;;
75048;SDS011;63803;53.120;8.764;2023-02-21T08:51:17;4.15;;;1.48;;
75048;SDS011;63803;53.120;8.764;2023-02-21T08:53:42;5.05;;;1.83;;
75048;SDS011;63803;53.120;8.764;2023-02-21T08:56:08;2.92;;;1.45;;
75048;SDS011;63803;53.120;8.764;2023-02-21T08:58:33;2.65;;;1.45;;
75048;SDS011;63803;53.120;8.764;2023-02-21T09:00:59;3.15;;;1.30;;
75048;SDS011;63803;53.120;8.764;2023-02-21T09:03:24;3.50;;;1.30;;
75048;SDS011;63803;53.120;8.764;2023-02-21T09:05:50;8.98;;;1.67;;
75048;SDS011;63803;53.120;8.764;2023-02-21T09:08:15;3.47;;;1.40;;
75048;SDS011;63803;53.120;8.764;2023-02-21T09:10:44;2.63;;;1.48;;
75048;SDS011;63803;53.120;8.764;2023-02-21T09:13:11;6.50;;;1.67;;
75048;SDS011;63803;53.120;8.764;2023-02-21T09:15:36;4.88;;;1.60;;
75048;SDS011;63803;53.120;8.764;2023-02-21T09:18:02;2.00;;;1.42;;
75048;SDS011;63803;53.120;8.764;2023-02-21T09:20:27;2.75;;;1.42;;
75048;SDS011;63803;53.120;8.764;2023-02-21T09:22:53;2.30;;;1.40;;
75048;SDS011;63803;53.120;8.764;2023-02-21T09:25:19;1.50;;;1.40;;
75048;SDS011;63803;53.120;8.764;2023-02-21T09:27:48;3.28;;;1.50;;
75048;SDS011;63803;53.120;8.764;2023-02-21T09:30:16;5.07;;;1.63;;
75048;SDS011;63803;53.120;8.764;2023-02-21T09:32:43;3.55;;;1.45;;
75048;SDS011;63803;53.120;8.764;2023-02-21T09:35:09;4.53;;;1.70;;
75048;SDS011;63803;53.120;8.764;2023-02-21T09:37:38;3.55;;;1.50;;
75048;SDS011;63803;53.120;8.764;2023-02-21T09:40:15;5.38;;;1.60;;
75048;SDS011;63803;53.120;8.764;2023-02-21T09:42:48;3.72;;;1.50;;
75048;SDS011;63803;53.120;8.764;2023-02-21T09:45:17;4.25;;;1.50;;
75048;SDS011;63803;53.120;8.764;2023-02-21T09:47:48;3.33;;;1.30;;
75048;SDS011;63803;53.120;8.764;2023-02-21T09:50:18;2.15;;;1.58;;
75048;SDS011;63803;53.120;8.764;2023-02-21T09:52:51;5.40;;;1.40;;
75048;SDS011;63803;53.120;8.764;2023-02-21T09:55:28;9.10;;;1.30;;
75048;SDS011;63803;53.120;8.764;2023-02-21T09:58:08;2.20;;;1.38;;
75048;SDS011;63803;53.120;8.764;2023-02-21T10:00:36;3.03;;;1.27;;
75048;SDS011;63803;53.120;8.764;2023-02-21T10:12:06;2.47;;;1.30;;
75048;SDS011;63803;53.120;8.764;2023-02-21T10:15:10;2.67;;;1.30;;
75048;SDS011;63803;53.120;8.764;2023-02-21T10:17:53;4.05;;;1.30;;
75048;SDS011;63803;53.120;8.764;2023-02-21T10:22:54;3.83;;;1.30;;
75048;SDS011;63803;53.120;8.764;2023-02-21T10:25:25;2.58;;;1.35;;
75048;SDS011;63803;53.120;8.764;2023-02-21T10:27:53;2.47;;;1.40;;
75048;SDS011;63803;53.120;8.764;2023-02-21T10:30:30;4.15;;;1.55;;
75048;SDS011;63803;53.120;8.764;2023-02-21T10:33:01;2.42;;;1.35;;
75048;SDS011;63803;53.120;8.764;2023-02-21T10:35:31;2.20;;;1.27;;
75048;SDS011;63803;53.120;8.764;2023-02-21T10:37:58;8.05;;;1.50;;
75048;SDS011;63803;53.120;8.764;2023-02-21T10:40:33;6.07;;;1.73;;
75048;SDS011;63803;53.120;8.764;2023-02-21T10:43:04;3.22;;;1.40;;
75048;SDS011;63803;53.120;8.764;2023-02-21T10:45:44;3.20;;;1.85;;
75048;SDS011;63803;53.120;8.764;2023-02-21T10:48:13;3.90;;;1.53;;
75048;SDS011;63803;53.120;8.764;2023-02-21T10:50:48;5.88;;;1.65;;
75048;SDS011;63803;53.120;8.764;2023-02-21T10:53:27;5.55;;;1.17;;
75048;SDS011;63803;53.120;8.764;2023-02-21T10:58:39;2.55;;;1.35;;
75048;SDS011;63803;53.120;8.764;2023-02-21T11:01:14;7.85;;;1.63;;
75048;SDS011;63803;53.120;8.764;2023-02-21T11:03:47;6.88;;;1.65;;
75048;SDS011;63803;53.120;8.764;2023-02-21T11:07:16;5.90;;;1.40;;
75048;SDS011;63803;53.120;8.764;2023-02-21T11:09:30;5.28;;;1.55;;
75048;SDS011;63803;53.120;8.764;2023-02-21T11:12:00;3.67;;;1.65;;
75048;SDS011;63803;53.120;8.764;2023-02-21T11:14:28;1.58;;;1.20;;
75048;SDS011;63803;53.120;8.764;2023-02-21T11:28:49;3.55;;;1.40;;
75048;SDS011;63803;53.120;8.764;2023-02-21T11:33:23;1.92;;;1.30;;
75048;SDS011;63803;53.120;8.764;2023-02-21T11:35:50;3.67;;;1.35;;
75048;SDS011;63803;53.120;8.764;2023-02-21T11:41:00;5.30;;;1.27;;
75048;SDS011;63803;53.120;8.764;2023-02-21T11:43:31;3.60;;;1.40;;
75048;SDS011;63803;53.120;8.764;2023-02-21T11:51:32;3.08;;;1.45;;
75048;SDS011;63803;53.120;8.764;2023-02-21T11:54:03;3.80;;;1.58;;
75048;SDS011;63803;53.120;8.764;2023-02-21T11:59:11;3.28;;;1.27;;
75048;SDS011;63803;53.120;8.764;2023-02-21T12:10:12;2.85;;;1.50;;
75048;SDS011;63803;53.120;8.764;2023-02-21T12:13:36;5.93;;;1.42;;
75048;SDS011;63803;53.120;8.764;2023-02-21T12:16:30;7.90;;;1.67;;
75048;SDS011;63803;53.120;8.764;2023-02-21T12:24:43;2.15;;;1.30;;
75048;SDS011;63803;53.120;8.764;2023-02-21T12:30:17;4.53;;;2.10;;
75048;SDS011;63803;53.120;8.764;2023-02-21T12:41:44;6.40;;;1.48;;
75048;SDS011;63803;53.120;8.764;2023-02-21T12:44:20;3.30;;;1.30;;
75048;SDS011;63803;53.120;8.764;2023-02-21T12:46:54;4.97;;;1.30;;
75048;SDS011;63803;53.120;8.764;2023-02-21T12:49:25;4.32;;;1.40;;
75048;SDS011;63803;53.120;8.764;2023-02-21T12:52:12;1.40;;;1.08;;
75048;SDS011;63803;53.120;8.764;2023-02-21T12:54:58;8.32;;;1.25;;
75048;SDS011;63803;53.120;8.764;2023-02-21T13:03:24;6.70;;;2.10;;
75048;SDS011;63803;53.120;8.764;2023-02-21T13:08:21;8.55;;;1.42;;
75048;SDS011;63803;53.120;8.764;2023-02-21T13:13:21;4.57;;;1.65;;
75048;SDS011;63803;53.120;8.764;2023-02-21T13:15:51;2.67;;;1.30;;
75048;SDS011;63803;53.120;8.764;2023-02-21T13:18:31;18.40;;;4.65;;
75048;SDS011;63803;53.120;8.764;2023-02-21T13:24:38;25.80;;;9.75;;
75048;SDS011;63803;53.120;8.764;2023-02-21T13:27:25;32.17;;;9.60;;
75048;SDS011;63803;53.120;8.764;2023-02-21T13:29:52;37.75;;;11.05;;
75048;SDS011;63803;53.120;8.764;2023-02-21T13:32:26;26.30;;;9.27;;
75048;SDS011;63803;53.120;8.764;2023-02-21T13:34:59;19.92;;;8.57;;
75048;SDS011;63803;53.120;8.764;2023-02-21T13:37:27;17.75;;;7.80;;
75048;SDS011;63803;53.120;8.764;2023-02-21T13:39:58;13.98;;;7.03;;
75048;SDS011;63803;53.120;8.764;2023-02-21T13:42:31;15.52;;;6.28;;
75048;SDS011;63803;53.120;8.764;2023-02-21T13:55:27;13.00;;;4.30;;
75048;SDS011;63803;53.120;8.764;2023-02-21T14:03:27;18.13;;;3.67;;
75048;SDS011;63803;53.120;8.764;2023-02-21T14:11:21;12.68;;;4.07;;
75048;SDS011;63803;53.120;8.764;2023-02-21T14:13:52;8.18;;;3.20;;
75048;SDS011;63803;53.120;8.764;2023-02-21T14:18:52;8.60;;;3.05;;
75048;SDS011;63803;53.120;8.764;2023-02-21T14:24:04;8.13;;;3.78;;
75048;SDS011;63803;53.120;8.764;2023-02-21T14:29:33;5.80;;;2.75;;
75048;SDS011;63803;53.120;8.764;2023-02-21T14:32:26;9.32;;;3.88;;
75048;SDS011;63803;53.120;8.764;2023-02-21T14:34:57;7.85;;;2.92;;
75048;SDS011;63803;53.120;8.764;2023-02-21T15:05:35;6.80;;;2.63;;
75048;SDS011;63803;53.120;8.764;2023-02-21T15:08:21;7.15;;;2.40;;
75048;SDS011;63803;53.120;8.764;2023-02-21T15:10:49;6.38;;;2.30;;
75048;SDS011;63803;53.120;8.764;2023-02-21T15:13:33;4.93;;;2.25;;
75048;SDS011;63803;53.120;8.764;2023-02-21T15:16:01;4.43;;;2.30;;
75048;SDS011;63803;53.120;8.764;2023-02-21T15:21:04;7.38;;;2.03;;
75048;SDS011;63803;53.120;8.764;2023-02-21T15:23:40;6.25;;;2.35;;
75048;SDS011;63803;53.120;8.764;2023-02-21T15:26:26;7.35;;;2.60;;
75048;SDS011;63803;53.120;8.764;2023-02-21T15:29:02;2.63;;;1.90;;
75048;SDS011;63803;53.120;8.764;2023-02-21T15:31:39;10.93;;;2.97;;
75048;SDS011;63803;53.120;8.764;2023-02-21T15:34:14;5.55;;;2.28;;
75048;SDS011;63803;53.120;8.764;2023-02-21T15:36:43;4.72;;;2.28;;
75048;SDS011;63803;53.120;8.764;2023-02-21T15:41:51;6.68;;;2.22;;
75048;SDS011;63803;53.120;8.764;2023-02-21T15:44:25;4.57;;;2.08;;
75048;SDS011;63803;53.120;8.764;2023-02-21T15:46:56;3.15;;;1.98;;
75048;SDS011;63803;53.120;8.764;2023-02-21T15:49:28;5.32;;;2.10;;
75048;SDS011;63803;53.120;8.764;2023-02-21T15:51:55;4.25;;;2.05;;
75048;SDS011;63803;53.120;8.764;2023-02-21T15:56:59;6.45;;;2.17;;
75048;SDS011;63803;53.120;8.764;2023-02-21T15:59:26;3.78;;;1.88;;
75048;SDS011;63803;53.120;8.764;2023-02-21T16:02:05;6.10;;;1.80;;
75048;SDS011;63803;53.120;8.764;2023-02-21T16:04:48;4.78;;;1.70;;
75048;SDS011;63803;53.120;8.764;2023-02-21T16:07:34;4.68;;;1.90;;
75048;SDS011;63803;53.120;8.764;2023-02-21T16:10:05;6.15;;;2.17;;
75048;SDS011;63803;53.120;8.764;2023-02-21T16:12:42;5.40;;;1.90;;
75048;SDS011;63803;53.120;8.764;2023-02-21T16:15:21;4.00;;;1.65;;
75048;SDS011;63803;53.120;8.764;2023-02-21T16:17:53;9.00;;;2.13;;
75048;SDS011;63803;53.120;8.764;2023-02-21T16:20:22;6.85;;;1.98;;
75048;SDS011;63803;53.120;8.764;2023-02-21T16:25:59;5.15;;;1.98;;
75048;SDS011;63803;53.120;8.764;2023-02-21T16:28:25;3.75;;;1.67;;
75048;SDS011;63803;53.120;8.764;2023-02-21T16:30:52;4.20;;;1.70;;
75048;SDS011;63803;53.120;8.764;2023-02-21T16:33:19;11.48;;;2.17;;
75048;SDS011;63803;53.120;8.764;2023-02-21T16:35:45;3.55;;;1.55;;
75048;SDS011;63803;53.120;8.764;2023-02-21T16:38:15;6.35;;;1.63;;
75048;SDS011;63803;53.120;8.764;2023-02-21T16:40:42;5.05;;;1.85;;
75048;SDS011;63803;53.120;8.764;2023-02-21T16:43:07;9.15;;;1.90;;
75048;SDS011;63803;53.120;8.764;2023-02-21T16:45:47;3.67;;;1.90;;
75048;SDS011;63803;53.120;8.764;2023-02-21T16:48:26;9.23;;;1.42;;
75048;SDS011;63803;53.120;8.764;2023-02-21T16:50:57;4.72;;;1.70;;
75048;SDS011;63803;53.120;8.764;2023-02-21T16:53:27;3.72;;;1.75;;
75048;SDS011;63803;53.120;8.764;2023-02-21T16:55:53;3.63;;;1.58;;
75048;SDS011;63803;53.120;8.764;2023-02-21T16:58:22;3.50;;;1.75;;
75048;SDS011;63803;53.120;8.764;2023-02-21T17:01:01;4.18;;;1.92;;
75048;SDS011;63803;53.120;8.764;2023-02-21T17:03:30;7.00;;;1.67;;
75048;SDS011;63803;53.120;8.764;2023-02-21T17:05:55;6.95;;;1.65;;
75048;SDS011;63803;53.120;8.764;2023-02-21T17:08:23;3.95;;;1.88;;
75048;SDS011;63803;53.120;8.764;2023-02-21T17:10:50;4.07;;;1.67;;
75048;SDS011;63803;53.120;8.764;2023-02-21T17:13:15;3.63;;;1.67;;
75048;SDS011;63803;53.120;8.764;2023-02-21T17:15:41;2.58;;;1.55;;
75048;SDS011;63803;53.120;8.764;2023-02-21T17:18:06;6.63;;;1.70;;
75048;SDS011;63803;53.120;8.764;2023-02-21T17:20:32;2.47;;;1.73;;
75048;SDS011;63803;53.120;8.764;2023-02-21T17:22:57;8.32;;;1.70;;
75048;SDS011;63803;53.120;8.764;2023-02-21T17:25:24;3.70;;;1.75;;
75048;SDS011;63803;53.120;8.764;2023-02-21T17:27:49;3.90;;;1.63;;
75048;SDS011;63803;53.120;8.764;2023-02-21T17:30:15;3.05;;;1.73;;
75048;SDS011;63803;53.120;8.764;2023-02-21T17:32:43;4.30;;;1.70;;
75048;SDS011;63803;53.120;8.764;2023-02-21T17:35:11;2.97;;;1.40;;
75048;SDS011;63803;53.120;8.764;2023-02-21T17:37:41;2.08;;;1.60;;
75048;SDS011;63803;53.120;8.764;2023-02-21T17:40:07;2.80;;;1.60;;
75048;SDS011;63803;53.120;8.764;2023-02-21T17:42:33;2.58;;;1.70;;
75048;SDS011;63803;53.120;8.764;2023-02-21T17:44:59;6.35;;;1.67;;
75048;SDS011;63803;53.120;8.764;2023-02-21T17:47:26;2.92;;;1.85;;
75048;SDS011;63803;53.120;8.764;2023-02-21T17:49:52;5.93;;;1.83;;
75048;SDS011;63803;53.120;8.764;2023-02-21T17:52:18;4.28;;;2.03;;
75048;SDS011;63803;53.120;8.764;2023-02-21T17:54:45;3.30;;;1.80;;
75048;SDS011;63803;53.120;8.764;2023-02-21T17:57:10;3.42;;;1.95;;
75048;SDS011;63803;53.120;8.764;2023-02-21T17:59:37;4.15;;;1.85;;
75048;SDS011;63803;53.120;8.764;2023-02-21T18:02:03;3.58;;;1.60;;
75048;SDS011;63803;53.120;8.764;2023-02-21T18:04:29;3.50;;;1.55;;
75048;SDS011;63803;53.120;8.764;2023-02-21T18:06:55;6.40;;;1.90;;
75048;SDS011;63803;53.120;8.764;2023-02-21T18:09:21;2.38;;;1.75;;
75048;SDS011;63803;53.120;8.764;2023-02-21T18:11:52;3.85;;;2.00;;
75048;SDS011;63803;53.120;8.764;2023-02-21T18:16:45;2.17;;;1.52;;
75048;SDS011;63803;53.120;8.764;2023-02-21T18:19:11;2.28;;;1.75;;
75048;SDS011;63803;53.120;8.764;2023-02-21T18:21:36;4.35;;;1.60;;
75048;SDS011;63803;53.120;8.764;2023-02-21T18:24:08;2.80;;;1.90;;
75048;SDS011;63803;53.120;8.764;2023-02-21T18:26:34;4.07;;;1.58;;
75048;SDS011;63803;53.120;8.764;2023-02-21T18:29:01;2.97;;;1.80;;
75048;SDS011;63803;53.120;8.764;2023-02-21T18:31:26;4.15;;;1.70;;
75048;SDS011;63803;53.120;8.764;2023-02-21T18:33:52;3.65;;;1.70;;
75048;SDS011;63803;53.120;8.764;2023-02-21T18:36:17;3.22;;;1.83;;
75048;SDS011;63803;53.120;8.764;2023-02-21T18:38:42;1.60;;;1.50;;